Meadow Bridge, West Virginia
Current Conditions -  °F | °C
As of 7:51 PM on Sunday 21 Dec 2014 (Local Time) from KBKW Reporting Station
Clear Clear  
Wind Chill: 32°   Ceiling: Unl
Heat Index: 37°   Visibility: 10mi
Dew Point: 28°   Wind: 7mph
Humidity: 70%   Direction: 140°SE
Pressure: 30.12"   Gusts: NA
Location:  37.86°N, 80.85°W
Report Text: KBKW 220051Z AUTO 14006KT 10SM CLR 03/M02 A3012 RMK AO2 SLP227 T00281022
Loading
Personal Weather Stations






























Interactive Weather Map New forecast layout! Learn more

10-Day Weather Forecast

Advertisements
Track Severe Weather on mobile